sensor_id;sensor_type;location;lat;lon;timestamp;pressure;altitude;pressure_sealevel;temperature;humidity
3428;BME280;1727;42.624;23.406;2022-12-07T00:01:26;94877.72;;;7.24;100.00
3428;BME280;1727;42.624;23.406;2022-12-07T00:03:54;94881.31;;;7.34;100.00
3428;BME280;1727;42.624;23.406;2022-12-07T00:06:22;94882.03;;;7.36;100.00
3428;BME280;1727;42.624;23.406;2022-12-07T00:08:49;94879.44;;;7.36;100.00
3428;BME280;1727;42.624;23.406;2022-12-07T00:11:17;94883.94;;;7.34;99.79
3428;BME280;1727;42.624;23.406;2022-12-07T00:13:45;94884.88;;;7.33;99.26
3428;BME280;1727;42.624;23.406;2022-12-07T00:16:14;94885.22;;;7.29;99.51
3428;BME280;1727;42.624;23.406;2022-12-07T00:18:43;94882.00;;;7.25;99.64
3428;BME280;1727;42.624;23.406;2022-12-07T00:21:11;94871.13;;;7.19;99.83
3428;BME280;1727;42.624;23.406;2022-12-07T00:23:39;94870.31;;;7.18;100.00
3428;BME280;1727;42.624;23.406;2022-12-07T00:26:08;94878.03;;;7.20;100.00
3428;BME280;1727;42.624;23.406;2022-12-07T00:28:35;94868.22;;;7.23;100.00
3428;BME280;1727;42.624;23.406;2022-12-07T00:31:04;94867.06;;;7.27;100.00
3428;BME280;1727;42.624;23.406;2022-12-07T00:33:32;94868.50;;;7.31;99.33
3428;BME280;1727;42.624;23.406;2022-12-07T00:36:01;94860.44;;;7.34;99.27
3428;BME280;1727;42.624;23.406;2022-12-07T00:38:29;94867.22;;;7.37;98.53
3428;BME280;1727;42.624;23.406;2022-12-07T00:40:56;94869.81;;;7.37;98.42
3428;BME280;1727;42.624;23.406;2022-12-07T00:43:24;94868.03;;;7.37;98.78
3428;BME280;1727;42.624;23.406;2022-12-07T00:45:51;94868.75;;;7.39;99.03
3428;BME280;1727;42.624;23.406;2022-12-07T00:48:18;94874.81;;;7.40;98.82
3428;BME280;1727;42.624;23.406;2022-12-07T00:50:45;94874.22;;;7.36;98.68
3428;BME280;1727;42.624;23.406;2022-12-07T00:53:13;94862.22;;;7.34;98.43
3428;BME280;1727;42.624;23.406;2022-12-07T00:55:40;94864.94;;;7.32;98.81
3428;BME280;1727;42.624;23.406;2022-12-07T00:58:07;94854.59;;;7.31;99.20
3428;BME280;1727;42.624;23.406;2022-12-07T01:00:36;94853.88;;;7.29;99.02
3428;BME280;1727;42.624;23.406;2022-12-07T01:03:03;94844.50;;;7.26;99.66
3428;BME280;1727;42.624;23.406;2022-12-07T01:05:30;94860.31;;;7.12;99.68
3428;BME280;1727;42.624;23.406;2022-12-07T01:07:57;94850.09;;;7.09;99.76
3428;BME280;1727;42.624;23.406;2022-12-07T01:10:25;94867.91;;;7.15;100.00
3428;BME280;1727;42.624;23.406;2022-12-07T01:12:53;94866.75;;;7.19;100.00
3428;BME280;1727;42.624;23.406;2022-12-07T01:15:20;94856.84;;;7.24;100.00
3428;BME280;1727;42.624;23.406;2022-12-07T01:17:46;94860.41;;;7.23;100.00
3428;BME280;1727;42.624;23.406;2022-12-07T01:20:13;94863.00;;;7.23;100.00
3428;BME280;1727;42.624;23.406;2022-12-07T01:22:42;94856.09;;;7.22;100.00
3428;BME280;1727;42.624;23.406;2022-12-07T01:25:11;94850.69;;;7.25;100.00
3428;BME280;1727;42.624;23.406;2022-12-07T01:27:39;94850.69;;;7.25;99.96
3428;BME280;1727;42.624;23.406;2022-12-07T01:30:07;94846.06;;;7.29;99.89
3428;BME280;1727;42.624;23.406;2022-12-07T01:32:34;94840.63;;;7.32;99.78
3428;BME280;1727;42.624;23.406;2022-12-07T01:35:01;94843.84;;;7.35;99.20
3428;BME280;1727;42.624;23.406;2022-12-07T01:37:34;94837.78;;;7.35;99.16
3428;BME280;1727;42.624;23.406;2022-12-07T01:40:01;94843.09;;;7.33;98.69
3428;BME280;1727;42.624;23.406;2022-12-07T01:42:28;94850.88;;;7.22;98.83
3428;BME280;1727;42.624;23.406;2022-12-07T01:48:10;94837.31;;;7.17;100.00
3428;BME280;1727;42.624;23.406;2022-12-07T01:50:39;94836.59;;;7.15;100.00
3428;BME280;1727;42.624;23.406;2022-12-07T01:53:09;94833.78;;;7.18;100.00
3428;BME280;1727;42.624;23.406;2022-12-07T01:55:40;94838.03;;;7.19;99.86
3428;BME280;1727;42.624;23.406;2022-12-07T01:58:08;94837.94;;;7.21;99.99
3428;BME280;1727;42.624;23.406;2022-12-07T02:00:35;94822.28;;;7.21;99.46
3428;BME280;1727;42.624;23.406;2022-12-07T02:03:05;94828.22;;;7.23;100.00
3428;BME280;1727;42.624;23.406;2022-12-07T02:05:37;94823.63;;;7.26;99.66
3428;BME280;1727;42.624;23.406;2022-12-07T02:08:04;94819.97;;;7.29;100.00
3428;BME280;1727;42.624;23.406;2022-12-07T02:10:31;94823.91;;;7.34;99.43
3428;BME280;1727;42.624;23.406;2022-12-07T02:13:02;94826.28;;;7.37;99.34
3428;BME280;1727;42.624;23.406;2022-12-07T02:15:39;94820.56;;;7.32;99.11
3428;BME280;1727;42.624;23.406;2022-12-07T02:18:14;94819.34;;;7.25;98.51
3428;BME280;1727;42.624;23.406;2022-12-07T02:20:50;94818.34;;;7.15;98.99
3428;BME280;1727;42.624;23.406;2022-12-07T02:23:36;94828.06;;;7.13;98.51
3428;BME280;1727;42.624;23.406;2022-12-07T02:26:30;94825.44;;;7.13;98.44
3428;BME280;1727;42.624;23.406;2022-12-07T02:29:14;94831.63;;;7.12;98.86
3428;BME280;1727;42.624;23.406;2022-12-07T02:31:50;94822.13;;;7.11;99.12
3428;BME280;1727;42.624;23.406;2022-12-07T02:34:28;94816.06;;;7.10;99.64
3428;BME280;1727;42.624;23.406;2022-12-07T02:37:01;94815.00;;;7.13;100.00
3428;BME280;1727;42.624;23.406;2022-12-07T02:39:37;94805.19;;;7.17;99.51
3428;BME280;1727;42.624;23.406;2022-12-07T02:42:12;94806.84;;;7.18;100.00
3428;BME280;1727;42.624;23.406;2022-12-07T02:44:42;94804.34;;;7.16;99.55
3428;BME280;1727;42.624;23.406;2022-12-07T02:47:12;94802.91;;;7.12;99.96
3428;BME280;1727;42.624;23.406;2022-12-07T02:49:41;94809.56;;;7.16;99.63
3428;BME280;1727;42.624;23.406;2022-12-07T02:52:08;94810.28;;;7.18;99.77
3428;BME280;1727;42.624;23.406;2022-12-07T02:54:35;94815.16;;;7.23;99.44
3428;BME280;1727;42.624;23.406;2022-12-07T02:57:11;94816.03;;;7.23;99.29
3428;BME280;1727;42.624;23.406;2022-12-07T02:59:51;94813.31;;;7.25;98.82
3428;BME280;1727;42.624;23.406;2022-12-07T03:02:31;94812.56;;;7.23;99.40
3428;BME280;1727;42.624;23.406;2022-12-07T03:05:11;94808.28;;;7.22;99.07
3428;BME280;1727;42.624;23.406;2022-12-07T03:07:45;94790.00;;;7.22;99.25
3428;BME280;1727;42.624;23.406;2022-12-07T03:10:20;94784.41;;;7.15;98.72
3428;BME280;1727;42.624;23.406;2022-12-07T03:12:55;94788.66;;;7.05;99.15
3428;BME280;1727;42.624;23.406;2022-12-07T03:15:32;94796.47;;;7.05;99.53
3428;BME280;1727;42.624;23.406;2022-12-07T03:18:00;94789.72;;;7.02;99.48
3428;BME280;1727;42.624;23.406;2022-12-07T03:20:31;94791.50;;;7.02;100.00
3428;BME280;1727;42.624;23.406;2022-12-07T03:23:00;94790.53;;;7.03;99.64
3428;BME280;1727;42.624;23.406;2022-12-07T03:25:27;94779.38;;;7.01;99.54
3428;BME280;1727;42.624;23.406;2022-12-07T03:27:57;94782.09;;;6.99;100.00
3428;BME280;1727;42.624;23.406;2022-12-07T03:30:32;94784.38;;;7.04;99.59
3428;BME280;1727;42.624;23.406;2022-12-07T03:33:06;94790.31;;;7.06;98.75
3428;BME280;1727;42.624;23.406;2022-12-07T03:35:37;94774.88;;;7.03;98.61
3428;BME280;1727;42.624;23.406;2022-12-07T03:38:13;94784.25;;;7.05;99.43
3428;BME280;1727;42.624;23.406;2022-12-07T03:40:48;94779.78;;;7.07;99.18
3428;BME280;1727;42.624;23.406;2022-12-07T03:43:17;94779.16;;;7.04;98.69
3428;BME280;1727;42.624;23.406;2022-12-07T03:45:53;94793.53;;;6.86;98.50
3428;BME280;1727;42.624;23.406;2022-12-07T03:48:27;94791.00;;;6.60;100.00
3428;BME280;1727;42.624;23.406;2022-12-07T03:51:00;94777.91;;;6.49;100.00
3428;BME280;1727;42.624;23.406;2022-12-07T03:53:36;94779.06;;;6.45;100.00
3428;BME280;1727;42.624;23.406;2022-12-07T03:56:05;94784.78;;;6.50;100.00
3428;BME280;1727;42.624;23.406;2022-12-07T03:58:34;94786.22;;;6.54;100.00
3428;BME280;1727;42.624;23.406;2022-12-07T04:01:02;94781.63;;;6.58;100.00
3428;BME280;1727;42.624;23.406;2022-12-07T04:03:29;94782.13;;;6.63;100.00
3428;BME280;1727;42.624;23.406;2022-12-07T04:05:56;94774.63;;;6.21;100.00
3428;BME280;1727;42.624;23.406;2022-12-07T04:08:24;94768.75;;;6.31;100.00
3428;BME280;1727;42.624;23.406;2022-12-07T04:10:50;94774.41;;;6.25;100.00
3428;BME280;1727;42.624;23.406;2022-12-07T04:13:17;94773.78;;;6.21;100.00
3428;BME280;1727;42.624;23.406;2022-12-07T04:15:44;94777.00;;;6.25;100.00
3428;BME280;1727;42.624;23.406;2022-12-07T04:18:12;94777.28;;;6.33;100.00
3428;BME280;1727;42.624;23.406;2022-12-07T04:20:39;94773.34;;;6.40;100.00
3428;BME280;1727;42.624;23.406;2022-12-07T04:23:06;94780.63;;;6.47;100.00
3428;BME280;1727;42.624;23.406;2022-12-07T04:25:33;94785.38;;;6.53;100.00
3428;BME280;1727;42.624;23.406;2022-12-07T04:28:00;94773.06;;;6.56;100.00
3428;BME280;1727;42.624;23.406;2022-12-07T04:30:27;94777.47;;;6.55;100.00
3428;BME280;1727;42.624;23.406;2022-12-07T04:32:54;94780.78;;;6.57;100.00
3428;BME280;1727;42.624;23.406;2022-12-07T04:35:22;94776.19;;;6.61;100.00
3428;BME280;1727;42.624;23.406;2022-12-07T04:37:49;94785.56;;;6.63;100.00
3428;BME280;1727;42.624;23.406;2022-12-07T04:40:15;94786.91;;;6.69;100.00
3428;BME280;1727;42.624;23.406;2022-12-07T04:42:42;94789.31;;;6.72;100.00
3428;BME280;1727;42.624;23.406;2022-12-07T04:45:09;94784.69;;;6.75;100.00
3428;BME280;1727;42.624;23.406;2022-12-07T04:47:36;94780.94;;;6.79;100.00
3428;BME280;1727;42.624;23.406;2022-12-07T04:50:04;94792.81;;;6.83;100.00
3428;BME280;1727;42.624;23.406;2022-12-07T04:52:32;94789.97;;;6.87;100.00
3428;BME280;1727;42.624;23.406;2022-12-07T04:54:59;94786.53;;;6.86;100.00
3428;BME280;1727;42.624;23.406;2022-12-07T04:57:26;94792.56;;;6.87;99.63
3428;BME280;1727;42.624;23.406;2022-12-07T04:59:52;94796.97;;;6.86;99.68
3428;BME280;1727;42.624;23.406;2022-12-07T05:02:19;94790.81;;;6.87;99.94
3428;BME280;1727;42.624;23.406;2022-12-07T05:04:46;94792.34;;;6.90;99.66
3428;BME280;1727;42.624;23.406;2022-12-07T05:07:16;94794.75;;;6.93;99.20
3428;BME280;1727;42.624;23.406;2022-12-07T05:09:45;94795.50;;;6.95;99.92
3428;BME280;1727;42.624;23.406;2022-12-07T05:12:12;94792.34;;;6.90;99.79
3428;BME280;1727;42.624;23.406;2022-12-07T05:14:38;94792.34;;;6.90;99.23
3428;BME280;1727;42.624;23.406;2022-12-07T05:17:06;94793.63;;;6.84;98.76
3428;BME280;1727;42.624;23.406;2022-12-07T05:19:33;94786.88;;;6.45;98.53
3428;BME280;1727;42.624;23.406;2022-12-07T05:22:00;94786.69;;;6.22;99.51
3428;BME280;1727;42.624;23.406;2022-12-07T05:24:27;94796.19;;;6.24;100.00
3428;BME280;1727;42.624;23.406;2022-12-07T05:26:55;94793.97;;;6.30;100.00
3428;BME280;1727;42.624;23.406;2022-12-07T05:29:22;94795.97;;;6.27;100.00
3428;BME280;1727;42.624;23.406;2022-12-07T05:31:48;94790.47;;;6.18;100.00
3428;BME280;1727;42.624;23.406;2022-12-07T05:34:15;94790.47;;;6.18;100.00
3428;BME280;1727;42.624;23.406;2022-12-07T05:36:42;94795.47;;;6.21;100.00
3428;BME280;1727;42.624;23.406;2022-12-07T05:39:10;94788.16;;;6.27;100.00
3428;BME280;1727;42.624;23.406;2022-12-07T05:41:37;94793.75;;;6.33;100.00
3428;BME280;1727;42.624;23.406;2022-12-07T05:44:22;94792.72;;;6.36;100.00
3428;BME280;1727;42.624;23.406;2022-12-07T05:46:49;94789.91;;;6.39;100.00
3428;BME280;1727;42.624;23.406;2022-12-07T05:49:16;94786.59;;;6.37;100.00
3428;BME280;1727;42.624;23.406;2022-12-07T05:51:43;94782.09;;;6.39;100.00
3428;BME280;1727;42.624;23.406;2022-12-07T05:54:10;94782.28;;;6.36;100.00
3428;BME280;1727;42.624;23.406;2022-12-07T05:56:37;94780.63;;;6.35;100.00
3428;BME280;1727;42.624;23.406;2022-12-07T05:59:04;94786.59;;;6.37;100.00
3428;BME280;1727;42.624;23.406;2022-12-07T06:01:55;94780.63;;;6.35;100.00
3428;BME280;1727;42.624;23.406;2022-12-07T06:04:24;94779.78;;;6.34;100.00
3428;BME280;1727;42.624;23.406;2022-12-07T06:06:51;94778.66;;;6.38;100.00
3428;BME280;1727;42.624;23.406;2022-12-07T06:09:18;94771.56;;;6.40;100.00
3428;BME280;1727;42.624;23.406;2022-12-07T06:11:45;94778.56;;;6.40;100.00
3428;BME280;1727;42.624;23.406;2022-12-07T06:14:30;94779.59;;;6.37;100.00
3428;BME280;1727;42.624;23.406;2022-12-07T06:16:59;94782.00;;;6.40;100.00
3428;BME280;1727;42.624;23.406;2022-12-07T06:19:26;94785.31;;;6.42;100.00
3428;BME280;1727;42.624;23.406;2022-12-07T06:21:54;94785.94;;;6.46;100.00
3428;BME280;1727;42.624;23.406;2022-12-07T06:24:21;94785.81;;;6.47;100.00
3428;BME280;1727;42.624;23.406;2022-12-07T06:26:48;94787.06;;;6.55;100.00
3428;BME280;1727;42.624;23.406;2022-12-07T06:29:16;94787.34;;;6.63;100.00
3428;BME280;1727;42.624;23.406;2022-12-07T06:31:43;94786.19;;;6.67;100.00
3428;BME280;1727;42.624;23.406;2022-12-07T06:34:14;94792.41;;;6.77;100.00
3428;BME280;1727;42.624;23.406;2022-12-07T06:36:41;94800.75;;;6.82;100.00
3428;BME280;1727;42.624;23.406;2022-12-07T06:39:08;94795.41;;;6.83;100.00
3428;BME280;1727;42.624;23.406;2022-12-07T06:41:35;94794.00;;;6.91;100.00
3428;BME280;1727;42.624;23.406;2022-12-07T06:44:03;94797.03;;;6.97;100.00
3428;BME280;1727;42.624;23.406;2022-12-07T06:46:30;94794.31;;;6.99;100.00
3428;BME280;1727;42.624;23.406;2022-12-07T06:48:57;94803.59;;;7.03;100.00
3428;BME280;1727;42.624;23.406;2022-12-07T06:51:25;94808.34;;;7.09;99.69
3428;BME280;1727;42.624;23.406;2022-12-07T06:53:52;94799.25;;;7.14;99.47
3428;BME280;1727;42.624;23.406;2022-12-07T06:56:19;94804.34;;;7.16;100.00
3428;BME280;1727;42.624;23.406;2022-12-07T06:58:46;94802.22;;;7.21;100.00
3428;BME280;1727;42.624;23.406;2022-12-07T07:01:14;94795.34;;;7.20;100.00
3428;BME280;1727;42.624;23.406;2022-12-07T07:03:42;94805.13;;;7.29;100.00
3428;BME280;1727;42.624;23.406;2022-12-07T07:06:09;94797.19;;;7.31;100.00
3428;BME280;1727;42.624;23.406;2022-12-07T07:08:38;94806.94;;;7.40;100.00
3428;BME280;1727;42.624;23.406;2022-12-07T07:11:06;94808.03;;;7.49;99.96
3428;BME280;1727;42.624;23.406;2022-12-07T07:13:34;94798.81;;;7.56;100.00
3428;BME280;1727;42.624;23.406;2022-12-07T07:16:00;94800.84;;;7.63;100.00
3428;BME280;1727;42.624;23.406;2022-12-07T07:18:28;94792.31;;;7.72;100.00
3428;BME280;1727;42.624;23.406;2022-12-07T07:20:55;94802.31;;;7.78;100.00
3428;BME280;1727;42.624;23.406;2022-12-07T07:23:22;94799.25;;;7.85;100.00
3428;BME280;1727;42.624;23.406;2022-12-07T07:25:50;94799.63;;;7.91;100.00
3428;BME280;1727;42.624;23.406;2022-12-07T07:28:17;94803.88;;;7.92;100.00
3428;BME280;1727;42.624;23.406;2022-12-07T07:30:45;94806.97;;;7.86;100.00
3428;BME280;1727;42.624;23.406;2022-12-07T07:33:12;94810.53;;;7.85;100.00
3428;BME280;1727;42.624;23.406;2022-12-07T07:35:38;94809.34;;;7.89;100.00
3428;BME280;1727;42.624;23.406;2022-12-07T07:38:06;94817.66;;;7.94;100.00
3428;BME280;1727;42.624;23.406;2022-12-07T07:40:33;94820.03;;;7.97;100.00
3428;BME280;1727;42.624;23.406;2022-12-07T07:43:01;94820.28;;;8.05;100.00
3428;BME280;1727;42.624;23.406;2022-12-07T07:45:28;94808.53;;;8.00;100.00
3428;BME280;1727;42.624;23.406;2022-12-07T07:47:55;94812.09;;;7.99;100.00
3428;BME280;1727;42.624;23.406;2022-12-07T07:50:22;94810.53;;;7.96;100.00
3428;BME280;1727;42.624;23.406;2022-12-07T07:52:48;94810.78;;;8.04;100.00
3428;BME280;1727;42.624;23.406;2022-12-07T07:55:15;94800.94;;;8.08;100.00
3428;BME280;1727;42.624;23.406;2022-12-07T07:57:42;94803.19;;;8.01;100.00
3428;BME280;1727;42.624;23.406;2022-12-07T08:00:13;94798.66;;;8.03;100.00
3428;BME280;1727;42.624;23.406;2022-12-07T08:02:42;94801.28;;;8.03;100.00
3428;BME280;1727;42.624;23.406;2022-12-07T08:05:10;94800.84;;;8.10;100.00
3428;BME280;1727;42.624;23.406;2022-12-07T08:07:37;94810.34;;;8.22;100.00
3428;BME280;1727;42.624;23.406;2022-12-07T08:10:05;94812.94;;;8.33;99.87
3428;BME280;1727;42.624;23.406;2022-12-07T08:12:35;94816.88;;;8.27;98.97
3428;BME280;1727;42.624;23.406;2022-12-07T08:15:03;94809.50;;;8.32;99.27
3428;BME280;1727;42.624;23.406;2022-12-07T08:17:32;94809.63;;;8.31;99.58
3428;BME280;1727;42.624;23.406;2022-12-07T08:19:59;94808.91;;;8.29;99.31
3428;BME280;1727;42.624;23.406;2022-12-07T08:22:26;94805.13;;;8.22;99.36
3428;BME280;1727;42.624;23.406;2022-12-07T08:24:53;94807.25;;;8.17;99.92
3428;BME280;1727;42.624;23.406;2022-12-07T08:27:19;94810.09;;;8.14;100.00
3428;BME280;1727;42.624;23.406;2022-12-07T08:29:49;94806.91;;;8.21;100.00
3428;BME280;1727;42.624;23.406;2022-12-07T08:32:15;94797.97;;;8.24;100.00
3428;BME280;1727;42.624;23.406;2022-12-07T08:34:44;94798.34;;;8.30;100.00
3428;BME280;1727;42.624;23.406;2022-12-07T08:37:11;94799.34;;;8.41;99.85
3428;BME280;1727;42.624;23.406;2022-12-07T08:39:37;94797.69;;;8.40;99.29
3428;BME280;1727;42.624;23.406;2022-12-07T08:42:04;94798.72;;;8.48;99.04
3428;BME280;1727;42.624;23.406;2022-12-07T08:44:31;94797.28;;;8.55;99.41
3428;BME280;1727;42.624;23.406;2022-12-07T08:47:00;94799.44;;;8.73;99.15
3428;BME280;1727;42.624;23.406;2022-12-07T08:49:33;94794.78;;;8.76;98.56
3428;BME280;1727;42.624;23.406;2022-12-07T08:52:04;94789.19;;;8.81;97.71
3428;BME280;1727;42.624;23.406;2022-12-07T08:54:33;94795.38;;;8.80;97.44
3428;BME280;1727;42.624;23.406;2022-12-07T08:57:01;94793.22;;;8.85;97.67
3428;BME280;1727;42.624;23.406;2022-12-07T08:59:28;94789.38;;;8.89;97.74
3428;BME280;1727;42.624;23.406;2022-12-07T09:01:55;94791.28;;;8.98;97.34
3428;BME280;1727;42.624;23.406;2022-12-07T09:04:22;94793.16;;;9.07;97.44
3428;BME280;1727;42.624;23.406;2022-12-07T09:06:49;94784.09;;;9.11;95.84
3428;BME280;1727;42.624;23.406;2022-12-07T09:09:17;94790.38;;;9.20;96.25
3428;BME280;1727;42.624;23.406;2022-12-07T09:11:44;94785.25;;;9.29;96.12
3428;BME280;1727;42.624;23.406;2022-12-07T09:14:11;94789.59;;;9.40;95.21
3428;BME280;1727;42.624;23.406;2022-12-07T09:16:38;94786.59;;;9.45;95.23
3428;BME280;1727;42.624;23.406;2022-12-07T09:19:08;94781.31;;;9.56;94.51
3428;BME280;1727;42.624;23.406;2022-12-07T09:21:35;94772.94;;;9.62;94.16
3428;BME280;1727;42.624;23.406;2022-12-07T09:24:02;94768.03;;;9.69;93.25
3428;BME280;1727;42.624;23.406;2022-12-07T09:26:30;94770.50;;;9.70;92.39
3428;BME280;1727;42.624;23.406;2022-12-07T09:28:57;94769.06;;;9.56;91.93
3428;BME280;1727;42.624;23.406;2022-12-07T09:31:23;94766.06;;;9.61;92.61
3428;BME280;1727;42.624;23.406;2022-12-07T09:33:53;94768.16;;;9.67;93.02
3428;BME280;1727;42.624;23.406;2022-12-07T09:36:20;94765.28;;;9.70;92.41
3428;BME280;1727;42.624;23.406;2022-12-07T09:38:47;94764.00;;;9.65;91.44
3428;BME280;1727;42.624;23.406;2022-12-07T09:41:14;94757.81;;;9.66;91.64
3428;BME280;1727;42.624;23.406;2022-12-07T09:43:43;94750.06;;;9.64;92.25
3428;BME280;1727;42.624;23.406;2022-12-07T09:46:13;94746.22;;;9.68;92.34
3428;BME280;1727;42.624;23.406;2022-12-07T09:48:43;94734.75;;;9.59;91.72
3428;BME280;1727;42.624;23.406;2022-12-07T09:51:14;94741.19;;;9.55;91.67
3428;BME280;1727;42.624;23.406;2022-12-07T09:53:42;94736.06;;;9.54;92.69
3428;BME280;1727;42.624;23.406;2022-12-07T09:56:11;94739.91;;;9.50;92.94
3428;BME280;1727;42.624;23.406;2022-12-07T09:58:39;94745.53;;;9.45;93.50
3428;BME280;1727;42.624;23.406;2022-12-07T10:01:12;94736.97;;;9.43;93.85
3428;BME280;1727;42.624;23.406;2022-12-07T10:03:50;94730.63;;;9.46;93.92
3428;BME280;1727;42.624;23.406;2022-12-07T10:06:18;94730.38;;;9.49;94.19
3428;BME280;1727;42.624;23.406;2022-12-07T10:08:45;94731.69;;;9.54;93.38
3428;BME280;1727;42.624;23.406;2022-12-07T10:11:12;94722.22;;;9.63;93.86
3428;BME280;1727;42.624;23.406;2022-12-07T10:13:41;94714.78;;;9.68;93.17
3428;BME280;1727;42.624;23.406;2022-12-07T10:16:31;94713.91;;;9.58;92.86
3428;BME280;1727;42.624;23.406;2022-12-07T10:19:18;94712.13;;;9.58;92.32
3428;BME280;1727;42.624;23.406;2022-12-07T13:46:19;94530.66;;;10.93;87.79
3428;BME280;1727;42.624;23.406;2022-12-07T13:48:49;94529.84;;;11.02;86.93
3428;BME280;1727;42.624;23.406;2022-12-07T13:51:18;94523.91;;;11.00;87.79
3428;BME280;1727;42.624;23.406;2022-12-07T13:53:49;94519.19;;;10.94;87.62
3428;BME280;1727;42.624;23.406;2022-12-07T13:56:20;94514.91;;;10.93;88.21
3428;BME280;1727;42.624;23.406;2022-12-07T13:58:47;94516.28;;;10.97;87.47
3428;BME280;1727;42.624;23.406;2022-12-07T14:01:14;94513.56;;;10.99;87.78
3428;BME280;1727;42.624;23.406;2022-12-07T14:03:42;94508.56;;;10.96;87.35
3428;BME280;1727;42.624;23.406;2022-12-07T14:06:16;94513.81;;;10.96;87.66
3428;BME280;1727;42.624;23.406;2022-12-07T14:08:44;94515.78;;;10.84;87.83
3428;BME280;1727;42.624;23.406;2022-12-07T14:11:15;94510.81;;;10.81;88.33
3428;BME280;1727;42.624;23.406;2022-12-07T14:13:51;94523.38;;;10.87;87.30
3428;BME280;1727;42.624;23.406;2022-12-07T14:16:23;94532.63;;;10.91;87.84
3428;BME280;1727;42.624;23.406;2022-12-07T14:18:53;94533.16;;;10.95;87.52
3428;BME280;1727;42.624;23.406;2022-12-07T14:21:21;94532.03;;;10.97;88.03
3428;BME280;1727;42.624;23.406;2022-12-07T14:24:14;94525.13;;;10.96;87.36
3428;BME280;1727;42.624;23.406;2022-12-07T14:26:42;94535.63;;;10.96;87.46
3428;BME280;1727;42.624;23.406;2022-12-07T14:29:31;94536.91;;;10.92;86.61
3428;BME280;1727;42.624;23.406;2022-12-07T14:32:19;94536.91;;;10.92;87.90
3428;BME280;1727;42.624;23.406;2022-12-07T14:35:00;94527.00;;;10.76;88.08
3428;BME280;1727;42.624;23.406;2022-12-07T14:37:28;94527.41;;;10.72;87.67
3428;BME280;1727;42.624;23.406;2022-12-07T14:39:56;94530.28;;;10.69;89.17
3428;BME280;1727;42.624;23.406;2022-12-07T14:42:25;94529.59;;;10.67;88.29
3428;BME280;1727;42.624;23.406;2022-12-07T14:44:53;94528.09;;;10.64;88.62
3428;BME280;1727;42.624;23.406;2022-12-07T14:47:20;94531.97;;;10.60;89.31
3428;BME280;1727;42.624;23.406;2022-12-07T14:49:47;94523.41;;;10.58;88.98
3428;BME280;1727;42.624;23.406;2022-12-07T14:52:18;94525.22;;;10.48;88.85
3428;BME280;1727;42.624;23.406;2022-12-07T14:54:45;94535.84;;;10.46;89.50
3428;BME280;1727;42.624;23.406;2022-12-07T14:57:12;94529.06;;;10.44;89.73
3428;BME280;1727;42.624;23.406;2022-12-07T14:59:39;94531.00;;;10.42;89.84
3428;BME280;1727;42.624;23.406;2022-12-07T15:02:08;94540.94;;;10.38;89.05
3428;BME280;1727;42.624;23.406;2022-12-07T15:04:36;94544.66;;;10.36;89.30
3428;BME280;1727;42.624;23.406;2022-12-07T15:07:06;94545.34;;;10.28;89.60
3428;BME280;1727;42.624;23.406;2022-12-07T15:09:37;94545.19;;;10.20;90.63
3428;BME280;1727;42.624;23.406;2022-12-07T15:12:04;94551.66;;;10.16;90.23
3428;BME280;1727;42.624;23.406;2022-12-07T15:14:31;94549.56;;;10.10;90.00
3428;BME280;1727;42.624;23.406;2022-12-07T15:16:58;94541.97;;;10.07;90.36
3428;BME280;1727;42.624;23.406;2022-12-07T15:19:25;94551.06;;;10.03;91.17
3428;BME280;1727;42.624;23.406;2022-12-07T15:21:52;94550.50;;;9.99;90.51
3428;BME280;1727;42.624;23.406;2022-12-07T15:24:19;94547.75;;;9.91;90.95
3428;BME280;1727;42.624;23.406;2022-12-07T15:26:48;94556.38;;;9.82;90.72
3428;BME280;1727;42.624;23.406;2022-12-07T15:29:15;94552.66;;;9.75;91.35
3428;BME280;1727;42.624;23.406;2022-12-07T15:31:42;94540.91;;;9.69;91.31
3428;BME280;1727;42.624;23.406;2022-12-07T15:34:10;94556.22;;;9.64;91.89
3428;BME280;1727;42.624;23.406;2022-12-07T15:36:37;94554.13;;;9.58;91.74
3428;BME280;1727;42.624;23.406;2022-12-07T15:39:04;94552.97;;;9.51;92.11
3428;BME280;1727;42.624;23.406;2022-12-07T15:41:31;94549.94;;;9.46;92.55
3428;BME280;1727;42.624;23.406;2022-12-07T15:43:59;94556.25;;;9.43;93.30
3428;BME280;1727;42.624;23.406;2022-12-07T15:46:43;94555.00;;;9.38;93.69
3428;BME280;1727;42.624;23.406;2022-12-07T15:49:12;94559.13;;;9.30;93.79
3428;BME280;1727;42.624;23.406;2022-12-07T15:51:40;94564.00;;;9.24;93.41
3428;BME280;1727;42.624;23.406;2022-12-07T15:54:12;94559.44;;;9.16;94.12
3428;BME280;1727;42.624;23.406;2022-12-07T15:56:39;94555.16;;;9.15;94.67
3428;BME280;1727;42.624;23.406;2022-12-07T15:59:07;94557.78;;;9.15;94.20
3428;BME280;1727;42.624;23.406;2022-12-07T16:01:34;94562.75;;;9.18;94.52
3428;BME280;1727;42.624;23.406;2022-12-07T16:04:01;94574.06;;;9.19;94.47
3428;BME280;1727;42.624;23.406;2022-12-07T16:06:28;94568.13;;;9.17;93.75
3428;BME280;1727;42.624;23.406;2022-12-07T16:08:55;94564.81;;;9.15;93.48
3428;BME280;1727;42.624;23.406;2022-12-07T16:11:22;94559.81;;;9.12;94.40
3428;BME280;1727;42.624;23.406;2022-12-07T16:13:49;94561.88;;;9.08;94.72
3428;BME280;1727;42.624;23.406;2022-12-07T16:16:18;94565.72;;;9.04;94.74
3428;BME280;1727;42.624;23.406;2022-12-07T16:18:47;94568.47;;;9.03;94.90
3428;BME280;1727;42.624;23.406;2022-12-07T16:21:14;94565.97;;;9.01;95.01
3428;BME280;1727;42.624;23.406;2022-12-07T16:23:43;94575.88;;;8.97;95.08
3428;BME280;1727;42.624;23.406;2022-12-07T16:26:15;94558.38;;;8.98;95.78
3428;BME280;1727;42.624;23.406;2022-12-07T16:28:42;94560.53;;;8.93;95.58
3428;BME280;1727;42.624;23.406;2022-12-07T16:31:11;94558.03;;;8.91;95.65
3428;BME280;1727;42.624;23.406;2022-12-07T16:33:41;94571.00;;;8.93;95.88
3428;BME280;1727;42.624;23.406;2022-12-07T16:36:10;94576.50;;;8.90;95.83
3428;BME280;1727;42.624;23.406;2022-12-07T16:38:37;94581.59;;;8.91;95.98
3428;BME280;1727;42.624;23.406;2022-12-07T16:41:05;94578.53;;;8.86;95.71
3428;BME280;1727;42.624;23.406;2022-12-07T16:43:32;94580.59;;;8.83;96.00
3428;BME280;1727;42.624;23.406;2022-12-07T16:45:59;94571.06;;;8.82;96.31
3428;BME280;1727;42.624;23.406;2022-12-07T16:48:26;94578.78;;;8.83;96.38
3428;BME280;1727;42.624;23.406;2022-12-07T16:50:54;94583.19;;;8.83;95.82
3428;BME280;1727;42.624;23.406;2022-12-07T16:53:22;94595.84;;;8.78;95.92
3428;BME280;1727;42.624;23.406;2022-12-07T16:55:50;94594.31;;;8.75;96.09